Hauptseite
METAR-TAF:

METAR-TAF

Flughäfen :

RAF Fairford

Fairford, England

Breite: 51-41N, Länge: 001-47W, Höhe: 87 m

Beobachtung

Neuester Wetterbericht von vor 27 Minuten, um 04:56 UTC
Wind 10 kt aus Südwest
Temperatur 15°C
Luftfeuchtigkeit 100%
Luftdruck 1011 hPa
Sichtweite 10 km oder mehr
Geschlossene Wolkendecke in der Höhe von 700 ft

METAR: EGVA 090456Z AUTO 23010KT 9999 OVC007 15/15 A2986 RMK AO2 SLP113 T01480148 $

Zeit: 06:23 (05:23 UTC)


TAF: fehlend

Wetterbeobachtungen und Prognosen von mehr als 4000 Flughäfen (METAR und TAF Bericht).

Die verfügbaren Stationen werden durch gelbe und rote Markierungen auf der Karte dargestellt.

Führen Sie die Maus auf sie, um den Namen der Station zu sehen.

Darauf klicken, um die Beobachtung von Wetterbeobachtungen und Prognosen zu sehen.

Um die Karte zu ändern : klicken Sie auf den grünen Tasten mit einem schwarzen Kreuz Zum Vergrößern, auf den grünen Button mit einem Gedankenstrich zu verkleinern, oder auf die grünen Pfeile für benachbarte Karten.


METAR-TAF: